Wetterdaten: Donnerstag, 26.03.2015
Datum Zeit Temp. A. Feuchte A. Luftdruck Regen Wind Richtung Richtung Sonnenschein ET UV Solar Taupunkt Windchill Windben Empfang
26.03.2015 00:00 9,8 C 66 % 999,5 hPa 0,0 l/m 11,9 km/h (2 Bft) SO 139 0 min 0,000 mm 0,0 UV-I 0 W/m 3,8 C 6,3 C 19,8 km/h (3 Bft) 0,00 %
26.03.2015 00:15 9,7 C 67 % 999,7 hPa 0,0 l/m 11,5 km/h (2 Bft) S 177 0 min 0,000 mm 0,0 UV-I 0 W/m 3,9 C 6,4 C 15,8 km/h (3 Bft) 0,00 %
26.03.2015 00:30 9,6 C 68 % 999,9 hPa 0,0 l/m 9,7 km/h (2 Bft) O-NO 75 0 min 0,000 mm 0,0 UV-I 0 W/m 4,0 C 7,3 C 11,9 km/h (2 Bft) 0,00 %
26.03.2015 00:45 9,4 C 70 % 999,6 hPa 0,0 l/m 9,0 km/h (2 Bft) O 94 0 min 0,000 mm 0,0 UV-I 0 W/m 4,2 C 7,6 C 11,9 km/h (2 Bft) 0,00 %
26.03.2015 01:00 9,2 C 71 % 1000,0 hPa 0,0 l/m 4,7 km/h (1 Bft) O-SO 113 0 min 0,000 mm 0,0 UV-I 0 W/m 4,2 C 9,2 C 7,9 km/h (2 Bft) 0,00 %
26.03.2015 01:15 9,0 C 71 % 1000,1 hPa 0,0 l/m 9,4 km/h (2 Bft) O 95 0 min 0,000 mm 0,0 UV-I 0 W/m 4,0 C 6,9 C 11,9 km/h (2 Bft) 0,00 %
26.03.2015 01:30 8,8 C 71 % 1000,0 hPa 0,0 l/m 5,4 km/h (1 Bft) O 85 0 min 0,000 mm 0,0 UV-I 0 W/m 3,8 C 8,8 C 7,9 km/h (2 Bft) 0,00 %
26.03.2015 01:45 8,6 C 72 % 1000,0 hPa 0,0 l/m 9,7 km/h (2 Bft) O-SO 123 0 min 0,000 mm 0,0 UV-I 0 W/m 3,8 C 6,2 C 11,9 km/h (2 Bft) 0,00 %
26.03.2015 02:00 8,5 C 74 % 1000,2 hPa 0,0 l/m 2,9 km/h (1 Bft) S-SO 153 0 min 0,000 mm 0,0 UV-I 0 W/m 4,1 C 8,5 C 7,9 km/h (2 Bft) 0,00 %
26.03.2015 02:15 8,3 C 75 % 1000,2 hPa 0,0 l/m 2,9 km/h (1 Bft) O-SO 111 0 min 0,000 mm 0,0 UV-I 0 W/m 4,1 C 8,3 C 4,0 km/h (1 Bft) 0,00 %
26.03.2015 02:30 8,0 C 76 % 1000,0 hPa 0,0 l/m 1,8 km/h (1 Bft) O-SO 103 0 min 0,000 mm 0,0 UV-I 0 W/m 4,0 C 8,0 C 4,0 km/h (1 Bft) 0,00 %
26.03.2015 02:45 7,8 C 78 % 1000,4 hPa 0,0 l/m 0,0 km/h (0 Bft) O-SO 121 0 min 0,000 mm 0,0 UV-I 0 W/m 4,2 C 7,8 C 0,0 km/h (0 Bft) 0,00 %
26.03.2015 03:00 7,5 C 80 % 1000,3 hPa 0,0 l/m 1,4 km/h (1 Bft) O 96 0 min 0,000 mm 0,0 UV-I 0 W/m 4,3 C 7,5 C 4,0 km/h (1 Bft) 0,00 %
26.03.2015 03:15 7,3 C 80 % 1000,4 hPa 0,0 l/m 0,0 km/h (0 Bft) SO 127 0 min 0,000 mm 0,0 UV-I 0 W/m 4,1 C 7,3 C 0,0 km/h (0 Bft) 0,00 %
26.03.2015 03:30 7,1 C 81 % 1000,5 hPa 0,0 l/m 0,0 km/h (0 Bft) S 172 0 min 0,000 mm 0,0 UV-I 0 W/m 4,1 C 7,1 C 0,0 km/h (0 Bft) 0,00 %
26.03.2015 03:45 6,8 C 83 % 1001,1 hPa 0,0 l/m 0,0 km/h (0 Bft) S 181 0 min 0,000 mm 0,0 UV-I 0 W/m 4,1 C 6,8 C 0,0 km/h (0 Bft) 0,00 %
26.03.2015 04:00 6,0 C 84 % 1001,4 hPa 0,0 l/m 0,0 km/h (0 Bft) S 174 0 min 0,000 mm 0,0 UV-I 0 W/m 3,5 C 6,0 C 0,0 km/h (0 Bft) 0,00 %
26.03.2015 04:15 5,8 C 85 % 1001,6 hPa 0,0 l/m 0,0 km/h (0 Bft) S 183 0 min 0,000 mm 0,0 UV-I 0 W/m 3,5 C 5,8 C 0,0 km/h (0 Bft) 0,00 %
26.03.2015 04:30 5,6 C 86 % 1001,9 hPa 0,0 l/m 0,0 km/h (0 Bft) S 175 0 min 0,000 mm 0,0 UV-I 0 W/m 3,4 C 5,6 C 0,0 km/h (0 Bft) 0,00 %
26.03.2015 04:45 5,7 C 87 % 1002,2 hPa 0,0 l/m 0,0 km/h (0 Bft) O-SO 108 0 min 0,000 mm 0,0 UV-I 0 W/m 3,7 C 5,7 C 0,0 km/h (0 Bft) 0,00 %
26.03.2015 05:00 5,4 C 87 % 1002,5 hPa 0,0 l/m 0,0 km/h (0 Bft) S 174 0 min 0,000 mm 0,0 UV-I 0 W/m 3,4 C 5,4 C 0,0 km/h (0 Bft) 0,00 %
26.03.2015 05:15 5,3 C 88 % 1002,8 hPa 0,0 l/m 0,0 km/h (0 Bft) S 180 0 min 0,000 mm 0,0 UV-I 0 W/m 3,5 C 5,3 C 0,0 km/h (0 Bft) 0,00 %
26.03.2015 05:30 5,4 C 87 % 1003,1 hPa 0,0 l/m 0,0 km/h (0 Bft) S 190 0 min 0,000 mm 0,0 UV-I 0 W/m 3,4 C 5,4 C 0,0 km/h (0 Bft) 0,00 %
26.03.2015 05:45 5,5 C 87 % 1003,2 hPa 0,0 l/m 0,0 km/h (0 Bft) W-SW 255 0 min 0,000 mm 0,0 UV-I 0 W/m 3,5 C 5,5 C 0,0 km/h (0 Bft) 0,00 %
26.03.2015 06:00 5,5 C 86 % 1003,3 hPa 0,0 l/m 0,0 km/h (0 Bft) S-SO 156 0 min 0,000 mm 0,0 UV-I 0 W/m 3,3 C 5,5 C 0,0 km/h (0 Bft) 0,00 %
26.03.2015 06:15 5,5 C 86 % 1003,9 hPa 0,0 l/m 0,0 km/h (0 Bft) S 184 0 min 0,000 mm 0,0 UV-I 4 W/m 3,3 C 5,5 C 0,0 km/h (0 Bft) 0,00 %
26.03.2015 06:30 5,6 C 86 % 1004,2 hPa 0,0 l/m 0,0 km/h (0 Bft) S 172 0 min 0,000 mm 0,0 UV-I 16 W/m 3,4 C 5,6 C 0,0 km/h (0 Bft) 0,00 %
26.03.2015 06:45 5,8 C 85 % 1004,4 hPa 0,0 l/m 0,0 km/h (0 Bft) W-NW 297 0 min 0,000 mm 1,0 UV-I 26 W/m 3,5 C 5,8 C 0,0 km/h (0 Bft) 0,00 %
26.03.2015 07:00 6,3 C 82 % 1004,6 hPa 0,0 l/m 2,9 km/h (1 Bft) W-SW 251 0 min 0,000 mm 1,0 UV-I 39 W/m 3,5 C 6,3 C 4,0 km/h (1 Bft) 0,00 %
26.03.2015 07:15 6,9 C 79 % 1004,7 hPa 0,0 l/m 0,0 km/h (0 Bft) W-SW 251 0 min 0,000 mm 1,0 UV-I 59 W/m 3,5 C 6,9 C 0,0 km/h (0 Bft) 0,00 %
26.03.2015 07:30 7,3 C 78 % 1004,9 hPa 0,0 l/m 0,4 km/h (0 Bft) S-SW 201 0 min 0,000 mm 1,0 UV-I 76 W/m 3,7 C 7,3 C 4,0 km/h (1 Bft) 0,00 %
26.03.2015 07:45 8,3 C 74 % 1005,0 hPa 0,0 l/m 1,8 km/h (1 Bft) W-SW 254 0 min 0,000 mm 1,0 UV-I 147 W/m 3,9 C 8,3 C 4,0 km/h (1 Bft) 0,00 %
26.03.2015 08:00 8,6 C 73 % 1005,3 hPa 0,0 l/m 0,7 km/h (0 Bft) W 279 0 min 0,000 mm 1,0 UV-I 105 W/m 4,0 C 8,6 C 4,0 km/h (1 Bft) 0,00 %
26.03.2015 08:15 9,0 C 72 % 1005,2 hPa 0,0 l/m 5,8 km/h (2 Bft) W-SW 256 0 min 0,000 mm 1,0 UV-I 139 W/m 4,2 C 9,0 C 7,9 km/h (2 Bft) 0,00 %
26.03.2015 08:30 9,1 C 71 % 1005,5 hPa 0,0 l/m 1,4 km/h (1 Bft) S-SW 198 0 min 0,000 mm 2,0 UV-I 152 W/m 4,1 C 9,1 C 4,0 km/h (1 Bft) 0,00 %
26.03.2015 08:45 9,7 C 69 % 1005,6 hPa 0,0 l/m 0,7 km/h (0 Bft) SW 235 0 min 0,000 mm 2,0 UV-I 189 W/m 4,3 C 9,7 C 4,0 km/h (1 Bft) 0,00 %
26.03.2015 09:00 9,8 C 67 % 1005,7 hPa 0,0 l/m 0,0 km/h (0 Bft) SW 227 0 min 0,000 mm 1,0 UV-I 153 W/m 4,0 C 9,8 C 0,0 km/h (0 Bft) 0,00 %
26.03.2015 09:15 9,6 C 68 % 1005,8 hPa 0,0 l/m 0,0 km/h (0 Bft) S 184 0 min 0,000 mm 1,0 UV-I 103 W/m 4,0 C 9,6 C 0,0 km/h (0 Bft) 0,00 %
26.03.2015 09:30 9,5 C 69 % 1006,1 hPa 0,0 l/m 1,4 km/h (1 Bft) W-SW 255 0 min 0,000 mm 1,0 UV-I 105 W/m 4,1 C 9,5 C 4,0 km/h (1 Bft) 0,00 %
26.03.2015 09:45 9,7 C 69 % 1006,2 hPa 0,0 l/m 0,0 km/h (0 Bft) S-SW 201 0 min 0,000 mm 1,0 UV-I 132 W/m 4,3 C 9,7 C 0,0 km/h (0 Bft) 0,00 %
26.03.2015 10:00 9,8 C 69 % 1006,3 hPa 0,0 l/m 1,4 km/h (1 Bft) W-SW 251 0 min 0,000 mm 1,0 UV-I 114 W/m 4,4 C 9,8 C 4,0 km/h (1 Bft) 0,00 %
26.03.2015 10:15 10,1 C 66 % 1006,4 hPa 0,0 l/m 2,9 km/h (1 Bft) W-SW 252 0 min 0,000 mm 2,0 UV-I 171 W/m 4,0 C 10,1 C 4,0 km/h (1 Bft) 0,00 %
26.03.2015 10:30 10,0 C 66 % 1006,3 hPa 0,0 l/m 0,0 km/h (0 Bft) S 172 0 min 0,000 mm 1,0 UV-I 169 W/m 3,9 C 10,0 C 0,0 km/h (0 Bft) 0,00 %
26.03.2015 10:45 10,4 C 66 % 1006,2 hPa 0,0 l/m 0,0 km/h (0 Bft) W-SW 251 0 min 0,000 mm 2,0 UV-I 219 W/m 4,3 C 10,4 C 0,0 km/h (0 Bft) 0,00 %
26.03.2015 11:00 10,4 C 67 % 1006,3 hPa 0,0 l/m 0,4 km/h (0 Bft) SW 223 0 min 0,000 mm 2,0 UV-I 227 W/m 4,5 C 10,4 C 4,0 km/h (1 Bft) 0,00 %
26.03.2015 11:15 10,1 C 69 % 1006,5 hPa 0,0 l/m 2,2 km/h (1 Bft) W-SW 251 0 min 0,000 mm 2,0 UV-I 183 W/m 4,7 C 10,1 C 4,0 km/h (1 Bft) 0,00 %
26.03.2015 11:30 9,9 C 68 % 1006,4 hPa 0,0 l/m 2,9 km/h (1 Bft) W-SW 252 0 min 0,000 mm 2,0 UV-I 154 W/m 4,3 C 9,9 C 4,0 km/h (1 Bft) 0,00 %
26.03.2015 11:45 9,9 C 68 % 1006,3 hPa 0,0 l/m 0,0 km/h (0 Bft) S-SW 209 0 min 0,000 mm 2,0 UV-I 178 W/m 4,3 C 9,9 C 0,0 km/h (0 Bft) 0,00 %
26.03.2015 12:00 10,9 C 62 % 1006,2 hPa 0,0 l/m 0,0 km/h (0 Bft) SW 218 0 min 0,000 mm 2,0 UV-I 256 W/m 3,9 C 10,9 C 0,0 km/h (0 Bft) 0,00 %
26.03.2015 12:15 10,5 C 64 % 1006,4 hPa 0,0 l/m 0,0 km/h (0 Bft) W-SW 250 0 min 0,000 mm 1,0 UV-I 163 W/m 4,0 C 10,5 C 0,0 km/h (0 Bft) 0,00 %
26.03.2015 12:30 10,1 C 65 % 1006,5 hPa 0,0 l/m 0,0 km/h (0 Bft) S 172 0 min 0,000 mm 1,0 UV-I 119 W/m 3,8 C 10,1 C 0,0 km/h (0 Bft) 0,00 %
26.03.2015 12:45 9,9 C 68 % 1006,6 hPa 0,0 l/m 0,0 km/h (0 Bft) W-SW 252 0 min 0,000 mm 1,0 UV-I 104 W/m 4,3 C 9,9 C 0,0 km/h (0 Bft) 0,00 %
26.03.2015 13:00 9,7 C 69 % 1006,5 hPa 0,0 l/m 0,7 km/h (0 Bft) S 177 0 min 0,000 mm 1,0 UV-I 110 W/m 4,3 C 9,7 C 4,0 km/h (1 Bft) 0,00 %
26.03.2015 13:15 9,7 C 70 % 1006,4 hPa 0,0 l/m 0,0 km/h (0 Bft) SW 234 0 min 0,000 mm 1,0 UV-I 109 W/m 4,5 C 9,7 C 0,0 km/h (0 Bft) 0,00 %
26.03.2015 13:30 9,8 C 69 % 1006,2 hPa 0,0 l/m 0,0 km/h (0 Bft) SW 220 0 min 0,000 mm 1,0 UV-I 130 W/m 4,4 C 9,8 C 0,0 km/h (0 Bft) 0,00 %
26.03.2015 13:45 9,6 C 67 % 1006,3 hPa 0,0 l/m 2,2 km/h (1 Bft) W 263 0 min 0,000 mm 1,0 UV-I 113 W/m 3,8 C 9,6 C 4,0 km/h (1 Bft) 0,00 %
26.03.2015 14:00 9,6 C 67 % 1006,2 hPa 0,0 l/m 2,2 km/h (1 Bft) W-SW 253 0 min 0,000 mm 1,0 UV-I 137 W/m 3,8 C 9,6 C 4,0 km/h (1 Bft) 0,00 %
26.03.2015 14:15 9,6 C 66 % 1005,9 hPa 0,0 l/m 0,7 km/h (0 Bft) S 189 0 min 0,000 mm 1,0 UV-I 120 W/m 3,6 C 9,6 C 4,0 km/h (1 Bft) 0,00 %
26.03.2015 14:30 9,5 C 65 % 1006,1 hPa 0,0 l/m 2,9 km/h (1 Bft) W-SW 256 0 min 0,000 mm 1,0 UV-I 118 W/m 3,3 C 9,5 C 7,9 km/h (2 Bft) 0,00 %
26.03.2015 14:45 9,5 C 65 % 1006,1 hPa 0,0 l/m 3,2 km/h (1 Bft) SW 227 0 min 0,000 mm 1,0 UV-I 121 W/m 3,3 C 9,5 C 4,0 km/h (1 Bft) 0,00 %
26.03.2015 15:00 9,3 C 66 % 1006,2 hPa 0,0 l/m 0,7 km/h (0 Bft) S-SW 208 0 min 0,000 mm 1,0 UV-I 83 W/m 3,3 C 9,3 C 4,0 km/h (1 Bft) 0,00 %
26.03.2015 15:15 9,4 C 65 % 1006,1 hPa 0,0 l/m 0,0 km/h (0 Bft) W-SW 256 0 min 0,000 mm 1,0 UV-I 93 W/m 3,2 C 9,4 C 0,0 km/h (0 Bft) 0,00 %
26.03.2015 15:30 9,6 C 64 % 1006,1 hPa 0,0 l/m 0,0 km/h (0 Bft) S-SW 204 0 min 0,000 mm 1,0 UV-I 102 W/m 3,1 C 9,6 C 0,0 km/h (0 Bft) 0,00 %
26.03.2015 15:45 9,4 C 66 % 1006,1 hPa 0,0 l/m 0,0 km/h (0 Bft) S-SW 197 0 min 0,000 mm 1,0 UV-I 78 W/m 3,4 C 9,4 C 0,0 km/h (0 Bft) 0,00 %
26.03.2015 16:00 9,2 C 66 % 1006,4 hPa 0,0 l/m 0,0 km/h (0 Bft) SW 224 0 min 0,000 mm 1,0 UV-I 58 W/m 3,2 C 9,2 C 0,0 km/h (0 Bft) 0,00 %
26.03.2015 16:15 8,8 C 66 % 1006,4 hPa 0,0 l/m 0,0 km/h (0 Bft) S-SW 203 0 min 0,000 mm 0,0 UV-I 46 W/m 2,8 C 8,8 C 0,0 km/h (0 Bft) 0,00 %
26.03.2015 16:30 8,8 C 67 % 1006,6 hPa 0,0 l/m 0,0 km/h (0 Bft) W-SW 252 0 min 0,000 mm 0,0 UV-I 38 W/m 3,0 C 8,8 C 0,0 km/h (0 Bft) 0,00 %
26.03.2015 16:45 8,6 C 69 % 1006,5 hPa 0,0 l/m 0,0 km/h (0 Bft) S 188 0 min 0,000 mm 0,0 UV-I 27 W/m 3,2 C 8,6 C 0,0 km/h (0 Bft) 0,00 %
26.03.2015 17:00 8,4 C 70 % 1006,8 hPa 0,0 l/m 0,7 km/h (0 Bft) S 186 0 min 0,000 mm 0,0 UV-I 17 W/m 3,3 C 8,4 C 4,0 km/h (1 Bft) 0,00 %
26.03.2015 17:15 8,2 C 71 % 1006,9 hPa 0,0 l/m 0,0 km/h (0 Bft) SW 230 0 min 0,000 mm 0,0 UV-I 6 W/m 3,3 C 8,2 C 0,0 km/h (0 Bft) 0,00 %
26.03.2015 17:30 8,2 C 72 % 1007,1 hPa 0,0 l/m 0,0 km/h (0 Bft) S-SW 210 0 min 0,000 mm 0,0 UV-I 5 W/m 3,5 C 8,2 C 0,0 km/h (0 Bft) 0,00 %
26.03.2015 17:45 8,0 C 72 % 1007,2 hPa 0,0 l/m 0,0 km/h (0 Bft) S-SW 207 0 min 0,000 mm 0,0 UV-I 0 W/m 3,3 C 8,0 C 0,0 km/h (0 Bft) 0,00 %
26.03.2015 18:00 7,9 C 73 % 1007,5 hPa 0,0 l/m 1,8 km/h (1 Bft) W-SW 254 0 min 0,000 mm 0,0 UV-I 0 W/m 3,4 C 7,9 C 4,0 km/h (1 Bft) 0,00 %
26.03.2015 18:15 7,7 C 73 % 1007,8 hPa 0,0 l/m 0,0 km/h (0 Bft) SW 215 0 min 0,000 mm 0,0 UV-I 0 W/m 3,2 C 7,7 C 0,0 km/h (0 Bft) 0,00 %
26.03.2015 18:30 7,7 C 74 % 1007,8 hPa 0,0 l/m 0,0 km/h (0 Bft) W-SW 252 0 min 0,000 mm 0,0 UV-I 0 W/m 3,4 C 7,7 C 0,0 km/h (0 Bft) 0,00 %
26.03.2015 18:45 7,5 C 77 % 1008,1 hPa 0,0 l/m 0,0 km/h (0 Bft) W-SW 253 0 min 0,000 mm 0,0 UV-I 0 W/m 3,7 C 7,5 C 0,0 km/h (0 Bft) 0,00 %
26.03.2015 19:00 7,2 C 78 % 1008,2 hPa 0,0 l/m 0,0 km/h (0 Bft) SW 234 0 min 0,000 mm 0,0 UV-I 0 W/m 3,6 C 7,2 C 0,0 km/h (0 Bft) 0,00 %
26.03.2015 19:15 7,2 C 78 % 1008,3 hPa 0,0 l/m 0,0 km/h (0 Bft) W-SW 251 0 min 0,000 mm 0,0 UV-I 0 W/m 3,6 C 7,2 C 0,0 km/h (0 Bft) 0,00 %
26.03.2015 19:30 7,1 C 78 % 1008,6 hPa 0,0 l/m 0,0 km/h (0 Bft) S-SW 209 0 min 0,000 mm 0,0 UV-I 0 W/m 3,5 C 7,1 C 0,0 km/h (0 Bft) 0,00 %
26.03.2015 19:45 7,0 C 79 % 1008,7 hPa 0,0 l/m 0,0 km/h (0 Bft) S 186 0 min 0,000 mm 0,0 UV-I 0 W/m 3,6 C 7,0 C 0,0 km/h (0 Bft) 0,00 %
26.03.2015 20:00 6,9 C 79 % 1009,0 hPa 0,0 l/m 0,0 km/h (0 Bft) SW 225 0 min 0,000 mm 0,0 UV-I 0 W/m 3,5 C 6,9 C 0,0 km/h (0 Bft) 0,00 %
26.03.2015 20:15 6,7 C 81 % 1009,1 hPa 0,0 l/m 0,0 km/h (0 Bft) W-SW 252 0 min 0,000 mm 0,0 UV-I 0 W/m 3,7 C 6,7 C 0,0 km/h (0 Bft) 0,00 %
26.03.2015 20:30 6,7 C 81 % 1009,2 hPa 0,0 l/m 0,0 km/h (0 Bft) W-SW 256 0 min 0,000 mm 0,0 UV-I 0 W/m 3,7 C 6,7 C 0,0 km/h (0 Bft) 0,00 %
26.03.2015 20:45 6,5 C 82 % 1009,3 hPa 0,0 l/m 0,0 km/h (0 Bft) S-SW 213 0 min 0,000 mm 0,0 UV-I 0 W/m 3,7 C 6,5 C 0,0 km/h (0 Bft) 0,00 %
26.03.2015 21:00 6,4 C 84 % 1009,3 hPa 0,0 l/m 0,0 km/h (0 Bft) W-SW 255 0 min 0,000 mm 0,0 UV-I 0 W/m 3,9 C 6,4 C 0,0 km/h (0 Bft) 0,00 %
26.03.2015 21:15 6,2 C 84 % 1009,3 hPa 0,0 l/m 0,7 km/h (0 Bft) W-SW 242 0 min 0,000 mm 0,0 UV-I 0 W/m 3,7 C 6,2 C 4,0 km/h (1 Bft) 0,00 %
26.03.2015 21:30 6,1 C 85 % 1009,3 hPa 0,3 l/m 0,0 km/h (0 Bft) SW 235 0 min 0,000 mm 0,0 UV-I 0 W/m 3,8 C 6,1 C 0,0 km/h (0 Bft) 0,00 %
26.03.2015 21:45 6,0 C 85 % 1009,7 hPa 0,0 l/m 0,0 km/h (0 Bft) SW 231 0 min 0,000 mm 0,0 UV-I 0 W/m 3,7 C 6,0 C 0,0 km/h (0 Bft) 0,00 %
26.03.2015 22:00 5,9 C 86 % 1009,6 hPa 0,0 l/m 0,0 km/h (0 Bft) W-SW 253 0 min 0,000 mm 0,0 UV-I 0 W/m 3,7 C 5,9 C 0,0 km/h (0 Bft) 0,00 %
26.03.2015 22:15 5,9 C 87 % 1009,9 hPa 0,3 l/m 1,4 km/h (1 Bft) SW 221 0 min 0,000 mm 0,0 UV-I 0 W/m 3,9 C 5,9 C 4,0 km/h (1 Bft) 0,00 %
26.03.2015 22:30 5,8 C 87 % 1010,0 hPa 0,0 l/m 0,0 km/h (0 Bft) SO 143 0 min 0,000 mm 0,0 UV-I 0 W/m 3,8 C 5,8 C 0,0 km/h (0 Bft) 0,00 %
26.03.2015 22:45 5,7 C 87 % 1010,0 hPa 0,3 l/m 0,4 km/h (0 Bft) W-SW 256 0 min 0,000 mm 0,0 UV-I 0 W/m 3,7 C 5,7 C 4,0 km/h (1 Bft) 0,00 %
26.03.2015 23:00 5,7 C 87 % 1010,1 hPa 0,3 l/m 2,2 km/h (1 Bft) W-SW 254 0 min 0,000 mm 0,0 UV-I 0 W/m 3,7 C 5,7 C 7,9 km/h (2 Bft) 0,00 %
26.03.2015 23:15 5,6 C 87 % 1010,1 hPa 0,0 l/m 1,4 km/h (1 Bft) SW 233 0 min 0,000 mm 0,0 UV-I 0 W/m 3,6 C 5,6 C 4,0 km/h (1 Bft) 0,00 %
26.03.2015 23:30 5,5 C 86 % 1010,4 hPa 0,3 l/m 1,8 km/h (1 Bft) N-NW 332 0 min 0,000 mm 0,0 UV-I 0 W/m 3,3 C 5,5 C 7,9 km/h (2 Bft) 0,00 %
26.03.2015 23:45 5,4 C 87 % 1010,3 hPa 0,0 l/m 1,8 km/h (1 Bft) W-SW 256 0 min 0,000 mm 0,0 UV-I 0 W/m 3,4 C 5,4 C 4,0 km/h (1 Bft) 0,00 %
_ Min-Zeit 05:15 12:00 00:00 - 02:45 - - - - - - 16:15 05:15 02:45 00:00
Minimum _ 5,3 C 62 % 999,5 hPa - 0,0 km/h (0 Bft) - - - - - - 2,8 C 5,3 C 0,0 km/h (0 Bft) 0,00 %
_ Max-Zeit 12:00 05:15 23:30 21:30 00:00 - - 00:00 00:00 08:30 12:00 11:15 12:00 00:00 00:00
Maximum _ 10,9 C 88 % 1010,4 hPa 0,3 l/m 11,9 km/h
SO (2 Bft)
- - 0 min 0,000 mm 2,0 UV-I 256 W/m 4,7 C 10,9 C 19,8 km/h
SO (3 Bft)
0,00 %
Durchschnitt _ 8,0 C 75 % 1005,5 hPa #1,5 l/m 1,3 km/h (1 Bft) W-SW - #0 min. #0,000 mm 1,2 UV-I 109 W/m 3,8 C 7,8 C 2,4 km/h (1 Bft) 0,00 %